createdAt,value
2019-06-15T00:00:16.688Z,99.90
2019-06-15T00:01:21.713Z,99.90
2019-06-15T00:02:26.098Z,99.90
2019-06-15T00:03:31.142Z,99.90
2019-06-15T00:04:35.626Z,99.90
2019-06-15T00:05:40.700Z,99.90
2019-06-15T00:06:45.136Z,99.90
2019-06-15T00:07:50.175Z,99.90
2019-06-15T00:08:54.652Z,99.90
2019-06-15T00:09:59.797Z,99.90
2019-06-15T00:11:05.310Z,99.90
2019-06-15T00:12:10.337Z,99.90
2019-06-15T00:13:14.713Z,99.90
2019-06-15T00:14:19.771Z,99.90
2019-06-15T00:15:24.237Z,99.90
2019-06-15T00:16:29.256Z,99.90
2019-06-15T00:17:33.701Z,99.90
2019-06-15T00:18:38.634Z,99.90
2019-06-15T00:19:43.093Z,99.90
2019-06-15T00:20:48.193Z,99.90
2019-06-15T00:21:52.695Z,99.90
2019-06-15T00:22:57.789Z,99.90
2019-06-15T00:24:02.118Z,99.90
2019-06-15T00:25:07.430Z,99.90
2019-06-15T00:26:12.005Z,99.90
2019-06-15T00:27:17.078Z,99.90
2019-06-15T00:28:21.469Z,99.90
2019-06-15T00:29:26.621Z,99.90
2019-06-15T00:30:31.036Z,99.90
2019-06-15T00:31:36.013Z,99.90
2019-06-15T00:32:40.421Z,99.90
2019-06-15T00:33:45.410Z,99.90
2019-06-15T00:34:49.942Z,99.90
2019-06-15T00:35:55.035Z,99.90
2019-06-15T00:36:59.459Z,99.90
2019-06-15T00:38:04.554Z,99.90
2019-06-15T00:39:09.292Z,99.90
2019-06-15T00:40:14.520Z,99.90
2019-06-15T00:41:18.893Z,99.90
2019-06-15T00:42:23.932Z,99.90
2019-06-15T00:43:28.332Z,99.90
2019-06-15T00:44:33.331Z,99.90
2019-06-15T00:45:37.885Z,99.90
2019-06-15T00:46:44.104Z,99.90
2019-06-15T00:47:48.473Z,99.90
2019-06-15T00:48:53.477Z,99.90
2019-06-15T00:49:57.837Z,99.90
2019-06-15T00:51:02.871Z,99.90
2019-06-15T00:52:07.308Z,99.90
2019-06-15T00:53:12.385Z,99.90
2019-06-15T00:54:16.693Z,99.90
2019-06-15T00:55:21.822Z,99.90
2019-06-15T00:56:26.289Z,99.90
2019-06-15T00:57:31.238Z,99.90
2019-06-15T00:58:35.594Z,99.90
2019-06-15T00:59:40.542Z,99.90
2019-06-15T01:00:45.297Z,99.90
2019-06-15T01:01:50.276Z,99.90
2019-06-15T01:02:54.625Z,99.90
2019-06-15T01:03:59.570Z,99.90
2019-06-15T01:05:04.036Z,99.90
2019-06-15T01:06:10.617Z,99.90
2019-06-15T01:07:15.051Z,99.90
2019-06-15T01:08:19.999Z,99.90
2019-06-15T01:09:24.479Z,99.90
2019-06-15T01:10:29.477Z,99.90
2019-06-15T01:11:33.960Z,99.90
2019-06-15T01:12:38.881Z,99.90
2019-06-15T01:13:43.391Z,99.90
2019-06-15T01:14:48.490Z,99.90
2019-06-15T01:15:53.156Z,99.90
2019-06-15T01:16:58.118Z,99.90
2019-06-15T01:18:02.461Z,99.90
2019-06-15T01:19:07.650Z,99.90
2019-06-15T01:20:13.946Z,99.90
2019-06-15T01:21:19.072Z,99.90
2019-06-15T01:22:23.489Z,99.90
2019-06-15T01:23:28.409Z,99.90
2019-06-15T01:24:32.917Z,99.90
2019-06-15T01:25:37.856Z,99.90
2019-06-15T01:26:45.248Z,99.90
2019-06-15T01:27:50.196Z,99.90
2019-06-15T01:28:54.609Z,99.90
2019-06-15T01:29:59.715Z,99.90
2019-06-15T01:31:04.214Z,99.90
2019-06-15T01:32:09.716Z,99.90
2019-06-15T01:33:14.350Z,99.90
2019-06-15T01:34:19.372Z,99.90
2019-06-15T01:35:23.729Z,99.90
2019-06-15T01:36:28.686Z,99.90
2019-06-15T01:37:33.124Z,99.90
2019-06-15T01:38:38.066Z,99.90
2019-06-15T01:39:42.433Z,99.90
2019-06-15T01:40:47.391Z,99.90
2019-06-15T01:41:51.999Z,99.90
2019-06-15T01:42:57.153Z,99.90
2019-06-15T01:44:01.525Z,99.90
2019-06-15T01:45:07.856Z,99.90
2019-06-15T01:46:12.327Z,99.90
2019-06-15T01:47:17.314Z,99.90
2019-06-15T01:48:21.718Z,99.90
2019-06-15T01:49:26.629Z,99.90
2019-06-15T01:50:30.987Z,99.90
2019-06-15T01:51:35.984Z,99.90
2019-06-15T01:52:40.513Z,99.90
2019-06-15T01:53:45.455Z,99.90
2019-06-15T01:54:49.831Z,99.90
2019-06-15T01:55:55.042Z,99.90
2019-06-15T01:56:59.535Z,99.90
2019-06-15T01:58:04.488Z,99.90
2019-06-15T01:59:09.063Z,99.90
2019-06-15T02:00:22.328Z,99.90
2019-06-15T02:01:26.714Z,99.90
2019-06-15T02:02:31.664Z,99.90
2019-06-15T02:03:36.064Z,99.90
2019-06-15T02:04:40.975Z,99.90
2019-06-15T02:05:45.299Z,99.90
2019-06-15T02:06:50.257Z,99.90
2019-06-15T02:07:54.741Z,99.90
2019-06-15T02:08:59.709Z,99.90
2019-06-15T02:10:04.546Z,99.90
2019-06-15T02:11:09.709Z,99.90
2019-06-15T02:12:14.400Z,99.90
2019-06-15T02:13:19.379Z,99.90
2019-06-15T02:14:23.780Z,99.90
2019-06-15T02:15:28.706Z,99.90
2019-06-15T02:16:33.381Z,99.90
2019-06-15T02:17:38.320Z,99.90
2019-06-15T02:18:42.674Z,99.90
2019-06-15T02:19:47.564Z,99.90
2019-06-15T02:20:51.920Z,99.90
2019-06-15T02:21:57.245Z,99.90
2019-06-15T02:23:02.351Z,99.90
2019-06-15T02:24:07.315Z,99.90
2019-06-15T02:25:12.136Z,99.90
2019-06-15T02:26:17.465Z,99.90
2019-06-15T02:27:21.948Z,99.90
2019-06-15T02:28:26.936Z,99.90
2019-06-15T02:29:31.353Z,99.90
2019-06-15T02:30:36.997Z,99.90
2019-06-15T02:31:41.334Z,99.90
2019-06-15T02:32:46.259Z,99.90
2019-06-15T02:33:50.702Z,99.90
2019-06-15T02:34:55.718Z,99.90
2019-06-15T02:36:00.117Z,99.90
2019-06-15T02:37:05.120Z,99.90
2019-06-15T02:38:10.796Z,99.90
2019-06-15T02:39:15.946Z,99.90
2019-06-15T02:40:20.481Z,99.90
2019-06-15T02:41:25.423Z,99.90
2019-06-15T02:42:29.838Z,99.90
2019-06-15T02:43:34.757Z,99.90
2019-06-15T02:44:39.207Z,99.90
2019-06-15T02:45:44.177Z,99.90
2019-06-15T02:46:48.600Z,99.90
2019-06-15T02:47:53.560Z,99.90
2019-06-15T02:48:57.932Z,99.90
2019-06-15T02:50:03.004Z,99.90
2019-06-15T02:51:07.462Z,99.90
2019-06-15T02:52:12.782Z,99.90
2019-06-15T02:53:17.356Z,99.90
2019-06-15T02:54:22.360Z,99.90
2019-06-15T02:55:26.705Z,99.90
2019-06-15T02:56:31.689Z,99.90
2019-06-15T02:57:36.534Z,99.90
2019-06-15T02:58:41.479Z,99.90
2019-06-15T02:59:45.897Z,99.90
2019-06-15T03:01:06.697Z,99.90
2019-06-15T03:02:11.186Z,99.90
2019-06-15T03:03:16.640Z,99.90
2019-06-15T03:04:21.041Z,99.90
2019-06-15T03:05:26.148Z,99.90
2019-06-15T03:06:30.510Z,99.90
2019-06-15T03:07:35.607Z,99.90
2019-06-15T03:08:40.144Z,99.90
2019-06-15T03:09:45.262Z,99.90
2019-06-15T03:10:49.729Z,99.90
2019-06-15T03:11:54.790Z,99.90
2019-06-15T03:12:59.369Z,99.90
2019-06-15T03:14:06.652Z,99.90
2019-06-15T03:15:11.641Z,99.90
2019-06-15T03:16:16.809Z,99.90
2019-06-15T03:17:21.279Z,99.90
2019-06-15T03:18:26.260Z,99.90
2019-06-15T03:19:30.673Z,99.90
2019-06-15T03:20:35.667Z,99.90
2019-06-15T03:21:40.088Z,99.90
2019-06-15T03:22:45.140Z,99.90
2019-06-15T03:23:49.510Z,99.90
2019-06-15T03:24:54.576Z,99.90
2019-06-15T03:26:05.573Z,99.90
2019-06-15T03:27:06.064Z,99.90
2019-06-15T03:28:10.885Z,99.90
2019-06-15T03:29:16.137Z,99.90
2019-06-15T03:30:22.155Z,99.90
2019-06-15T03:31:27.442Z,99.90
2019-06-15T03:32:31.762Z,99.90
2019-06-15T03:33:37.149Z,99.90
2019-06-15T03:34:41.508Z,99.90
2019-06-15T03:35:46.521Z,99.90
2019-06-15T03:36:51.021Z,99.90
2019-06-15T03:37:56.006Z,99.90
2019-06-15T03:39:00.364Z,99.90
2019-06-15T03:40:05.785Z,99.90
2019-06-15T03:41:10.463Z,99.90
2019-06-15T03:42:16.048Z,99.90
2019-06-15T03:43:20.591Z,99.90
2019-06-15T03:44:25.626Z,99.90
2019-06-15T03:45:30.086Z,99.90
2019-06-15T03:46:35.084Z,99.90
2019-06-15T03:47:39.499Z,99.90
2019-06-15T03:48:44.582Z,99.90
2019-06-15T03:49:50.053Z,99.90
2019-06-15T03:50:55.022Z,99.90
2019-06-15T03:51:59.615Z,99.90
2019-06-15T03:53:05.099Z,99.90
2019-06-15T03:54:09.656Z,99.90
2019-06-15T03:55:15.127Z,99.90
2019-06-15T03:56:21.990Z,99.90
2019-06-15T03:57:26.157Z,99.90
2019-06-15T03:58:30.521Z,99.90
2019-06-15T03:59:36.576Z,99.90
2019-06-15T04:00:46.313Z,99.90
2019-06-15T04:01:51.889Z,99.90
2019-06-15T04:02:56.388Z,99.90
2019-06-15T04:04:01.358Z,99.90
2019-06-15T04:05:07.868Z,99.90
2019-06-15T04:06:13.186Z,99.90
2019-06-15T04:07:17.625Z,99.90
2019-06-15T04:08:22.653Z,99.90
2019-06-15T04:09:27.371Z,99.90
2019-06-15T04:10:32.293Z,99.90
2019-06-15T04:11:37.218Z,99.90
2019-06-15T04:12:42.183Z,99.90
2019-06-15T04:13:46.531Z,99.90
2019-06-15T04:14:51.544Z,99.90
2019-06-15T04:15:55.873Z,99.90
2019-06-15T04:17:01.006Z,99.90
2019-06-15T04:18:05.421Z,99.90
2019-06-15T04:19:10.498Z,99.90
2019-06-15T04:20:15.050Z,99.90
2019-06-15T04:21:19.985Z,99.90
2019-06-15T04:22:24.464Z,99.90
2019-06-15T04:23:29.508Z,99.90
2019-06-15T04:24:33.843Z,99.90
2019-06-15T04:25:39.049Z,99.90
2019-06-15T04:26:43.413Z,99.90
2019-06-15T04:27:48.376Z,99.90
2019-06-15T04:28:52.742Z,99.90
2019-06-15T04:29:58.340Z,99.90
2019-06-15T04:31:02.702Z,99.90
2019-06-15T04:32:07.646Z,99.90
2019-06-15T04:33:12.892Z,99.90
2019-06-15T04:34:18.052Z,99.90
2019-06-15T04:35:22.412Z,99.90
2019-06-15T04:36:27.474Z,99.90
2019-06-15T04:37:31.905Z,99.90
2019-06-15T04:38:36.870Z,99.90
2019-06-15T04:39:41.349Z,99.90
2019-06-15T04:40:46.459Z,99.90
2019-06-15T04:41:51.024Z,99.90
2019-06-15T04:42:56.303Z,99.90
2019-06-15T04:44:00.877Z,99.90
2019-06-15T04:45:06.624Z,99.90
2019-06-15T04:46:11.100Z,99.90
2019-06-15T04:47:16.088Z,99.90
2019-06-15T04:48:20.532Z,99.90
2019-06-15T04:49:25.531Z,99.90
2019-06-15T04:50:29.900Z,99.90
2019-06-15T04:51:34.943Z,99.90
2019-06-15T04:52:39.519Z,99.90
2019-06-15T04:53:44.492Z,99.90
2019-06-15T04:54:48.828Z,99.90
2019-06-15T04:55:53.832Z,99.90
2019-06-15T04:56:58.228Z,99.90
2019-06-15T04:58:03.278Z,99.90
2019-06-15T04:59:07.869Z,99.90
2019-06-15T05:00:14.317Z,99.90
2019-06-15T05:01:18.749Z,99.90
2019-06-15T05:02:27.051Z,99.80
2019-06-15T05:03:29.773Z,99.60
2019-06-15T05:04:34.745Z,99.40
2019-06-15T05:05:41.902Z,99.30
2019-06-15T05:06:46.881Z,99.80
2019-06-15T05:07:51.201Z,99.70
2019-06-15T05:08:56.479Z,99.20
2019-06-15T05:10:01.427Z,99.90
2019-06-15T05:11:06.613Z,98.90
2019-06-15T05:12:13.578Z,99.30
2019-06-15T05:13:18.668Z,98.00
2019-06-15T05:14:23.124Z,97.40
2019-06-15T05:15:28.062Z,97.20
2019-06-15T05:16:32.434Z,97.20
2019-06-15T05:17:39.566Z,97.80
2019-06-15T05:18:43.892Z,97.80
2019-06-15T05:19:49.276Z,97.70
2019-06-15T05:20:53.691Z,97.80
2019-06-15T05:21:58.677Z,97.70
2019-06-15T05:23:03.211Z,97.80
2019-06-15T05:24:08.757Z,98.10
2019-06-15T05:25:14.460Z,98.80
2019-06-15T05:26:19.399Z,98.90
2019-06-15T05:27:23.878Z,98.70
2019-06-15T05:28:28.855Z,99.60
2019-06-15T05:29:33.229Z,98.80
2019-06-15T05:30:38.347Z,99.70
2019-06-15T05:31:42.840Z,99.90
2019-06-15T05:32:47.784Z,99.90
2019-06-15T05:33:52.193Z,99.90
2019-06-15T05:34:57.214Z,99.90
2019-06-15T05:36:01.701Z,99.90
2019-06-15T05:37:06.628Z,99.90
2019-06-15T05:38:11.956Z,99.90
2019-06-15T05:39:17.048Z,99.90
2019-06-15T05:40:23.082Z,99.90
2019-06-15T05:41:28.134Z,99.90
2019-06-15T05:42:32.549Z,99.90
2019-06-15T05:43:37.796Z,99.90
2019-06-15T05:44:42.224Z,99.90
2019-06-15T05:45:47.404Z,99.90
2019-06-15T05:46:51.857Z,99.90
2019-06-15T05:47:56.951Z,99.90
2019-06-15T05:49:01.404Z,99.90
2019-06-15T05:50:07.374Z,99.90
2019-06-15T05:51:12.227Z,99.90
2019-06-15T05:52:17.286Z,99.90
2019-06-15T05:53:21.661Z,99.90
2019-06-15T05:54:27.709Z,99.90
2019-06-15T05:55:32.277Z,99.90
2019-06-15T05:56:37.327Z,99.90
2019-06-15T05:57:41.786Z,99.90
2019-06-15T05:58:46.822Z,99.90
2019-06-15T05:59:51.892Z,99.90
2019-06-15T06:00:56.910Z,99.90
2019-06-15T06:02:01.262Z,99.90
2019-06-15T06:03:06.257Z,99.90
2019-06-15T06:04:11.218Z,99.90
2019-06-15T06:05:16.692Z,99.90
2019-06-15T06:06:21.333Z,99.90
2019-06-15T06:07:26.413Z,99.90
2019-06-15T06:08:30.898Z,99.90
2019-06-15T06:09:35.892Z,99.90
2019-06-15T06:10:40.382Z,99.90
2019-06-15T06:11:45.409Z,99.90
2019-06-15T06:12:49.813Z,99.90
2019-06-15T06:13:54.755Z,99.90
2019-06-15T06:14:59.965Z,99.90
2019-06-15T06:16:05.386Z,99.90
2019-06-15T06:17:10.352Z,99.90
2019-06-15T06:18:15.581Z,99.90
2019-06-15T06:19:19.961Z,99.90
2019-06-15T06:20:25.099Z,99.90
2019-06-15T06:21:29.794Z,99.90
2019-06-15T06:22:34.796Z,99.90
2019-06-15T06:23:39.523Z,99.90
2019-06-15T06:24:44.653Z,99.90
2019-06-15T06:25:49.041Z,99.90
2019-06-15T06:26:54.084Z,99.90
2019-06-15T06:27:58.512Z,99.90
2019-06-15T06:29:03.665Z,99.90
2019-06-15T06:30:08.369Z,99.90
2019-06-15T06:31:13.700Z,99.90
2019-06-15T06:32:18.373Z,99.90
2019-06-15T06:33:23.398Z,99.90
2019-06-15T06:34:27.973Z,99.90
2019-06-15T06:35:33.016Z,99.90
2019-06-15T06:36:37.827Z,99.90
2019-06-15T06:37:43.063Z,99.90
2019-06-15T06:38:47.686Z,99.90
2019-06-15T06:39:52.769Z,99.90
2019-06-15T06:40:59.820Z,99.90
2019-06-15T06:42:05.432Z,99.90
2019-06-15T06:43:10.281Z,99.90
2019-06-15T06:44:15.779Z,99.90
2019-06-15T06:45:20.709Z,99.90
2019-06-15T06:46:26.126Z,99.90
2019-06-15T06:47:30.836Z,99.90
2019-06-15T06:48:36.279Z,99.90
2019-06-15T06:49:40.809Z,99.90
2019-06-15T06:50:46.959Z,99.90
2019-06-15T06:51:51.456Z,99.90
2019-06-15T06:52:57.151Z,99.90
2019-06-15T06:54:01.719Z,99.90
2019-06-15T06:55:07.604Z,99.90
2019-06-15T06:56:14.795Z,99.20
2019-06-15T06:57:20.119Z,98.10
2019-06-15T06:58:24.771Z,97.40
2019-06-15T06:59:30.843Z,97.00
2019-06-15T07:00:35.469Z,95.70
2019-06-15T07:01:40.906Z,94.80
2019-06-15T07:02:45.566Z,93.90
2019-06-15T07:03:50.633Z,93.80
2019-06-15T07:04:55.067Z,93.10
2019-06-15T07:06:00.298Z,93.40
2019-06-15T07:07:04.808Z,93.30
2019-06-15T07:08:11.110Z,94.50
2019-06-15T07:09:15.876Z,95.20
2019-06-15T07:10:21.073Z,95.60
2019-06-15T07:11:25.957Z,96.20
2019-06-15T07:12:30.932Z,96.20
2019-06-15T07:13:35.951Z,96.90
2019-06-15T07:14:41.064Z,97.70
2019-06-15T07:15:45.470Z,97.50
2019-06-15T07:16:50.614Z,98.00
2019-06-15T07:17:56.071Z,98.10
2019-06-15T07:19:01.488Z,97.30
2019-06-15T07:20:06.438Z,96.70
2019-06-15T07:21:12.795Z,96.00
2019-06-15T07:22:19.703Z,95.90
2019-06-15T07:23:24.859Z,96.10
2019-06-15T07:24:29.290Z,96.00
2019-06-15T07:25:34.423Z,95.90
2019-06-15T07:26:38.834Z,96.10
2019-06-15T07:27:43.933Z,95.00
2019-06-15T07:28:48.452Z,95.20
2019-06-15T07:29:53.521Z,94.60
2019-06-15T07:30:58.043Z,95.20
2019-06-15T07:32:03.402Z,95.40
2019-06-15T07:33:07.928Z,94.90
2019-06-15T07:34:13.428Z,95.00
2019-06-15T07:35:17.885Z,96.00
2019-06-15T07:36:22.950Z,96.70
2019-06-15T07:37:27.370Z,97.60
2019-06-15T07:38:32.386Z,98.30
2019-06-15T07:39:36.821Z,99.30
2019-06-15T07:40:42.178Z,99.90
2019-06-15T07:41:46.713Z,99.90
2019-06-15T07:42:51.689Z,99.90
2019-06-15T07:43:56.364Z,99.90
2019-06-15T07:45:01.473Z,99.90
2019-06-15T07:46:05.992Z,99.90
2019-06-15T07:47:11.345Z,99.90
2019-06-15T07:48:15.995Z,99.90
2019-06-15T07:49:21.077Z,99.90
2019-06-15T07:50:25.521Z,99.90
2019-06-15T07:51:30.864Z,99.90
2019-06-15T07:52:35.544Z,99.90
2019-06-15T07:53:40.478Z,99.90
2019-06-15T07:54:45.004Z,99.90
2019-06-15T07:55:50.111Z,99.90
2019-06-15T07:56:57.995Z,99.90
2019-06-15T07:58:03.452Z,99.90
2019-06-15T07:59:08.312Z,99.90
2019-06-15T08:00:20.234Z,99.90
2019-06-15T08:01:24.689Z,99.90
2019-06-15T08:02:30.789Z,99.90
2019-06-15T08:03:35.696Z,99.90
2019-06-15T08:04:40.872Z,99.90
2019-06-15T08:05:45.282Z,99.90
2019-06-15T08:06:50.283Z,99.90
2019-06-15T08:07:54.854Z,99.90
2019-06-15T08:08:59.983Z,99.90
2019-06-15T08:10:05.042Z,99.90
2019-06-15T08:11:12.175Z,99.90
2019-06-15T08:12:16.816Z,99.90
2019-06-15T08:13:21.924Z,99.90
2019-06-15T08:14:26.681Z,99.90
2019-06-15T08:15:32.602Z,99.90
2019-06-15T08:16:37.419Z,99.90
2019-06-15T08:17:45.553Z,99.90
2019-06-15T08:18:49.726Z,99.90
2019-06-15T08:20:00.866Z,99.90
2019-06-15T08:21:06.833Z,99.90
2019-06-15T08:22:19.494Z,99.90
2019-06-15T08:23:28.081Z,99.90
2019-06-15T08:24:33.151Z,99.90
2019-06-15T08:25:39.370Z,99.90
2019-06-15T08:26:44.640Z,99.90
2019-06-15T08:27:53.222Z,99.90
2019-06-15T08:30:02.793Z,99.90
2019-06-15T08:31:08.197Z,99.90
2019-06-15T08:32:16.971Z,99.90
2019-06-15T08:33:22.204Z,99.90
2019-06-15T08:34:26.997Z,99.90
2019-06-15T08:35:32.135Z,99.90
2019-06-15T08:36:37.482Z,99.90
2019-06-15T08:37:43.281Z,99.90
2019-06-15T08:38:48.447Z,99.90
2019-06-15T08:39:53.610Z,99.90
2019-06-15T08:41:00.038Z,99.90
2019-06-15T08:42:06.103Z,99.90
2019-06-15T08:43:16.242Z,99.90
2019-06-15T08:44:22.014Z,99.90
2019-06-15T08:45:27.593Z,99.90
2019-06-15T08:46:34.719Z,99.90
2019-06-15T08:47:40.028Z,99.90
2019-06-15T08:48:45.105Z,99.90
2019-06-15T08:49:49.600Z,99.90
2019-06-15T08:50:55.265Z,99.90
2019-06-15T08:51:59.851Z,99.90
2019-06-15T08:53:05.402Z,99.90
2019-06-15T08:54:13.758Z,99.90
2019-06-15T08:55:19.316Z,99.90
2019-06-15T08:56:28.908Z,99.90
2019-06-15T08:57:36.070Z,99.90
2019-06-15T08:58:55.182Z,99.90
2019-06-15T08:59:54.224Z,99.90
2019-06-15T09:00:59.308Z,99.90
2019-06-15T09:02:07.556Z,99.90
2019-06-15T09:03:18.190Z,99.90
2019-06-15T09:04:24.442Z,99.90
2019-06-15T09:05:29.494Z,99.90
2019-06-15T09:06:35.735Z,99.90
2019-06-15T09:07:40.825Z,99.90
2019-06-15T09:08:46.814Z,99.90
2019-06-15T09:09:52.017Z,99.90
2019-06-15T09:10:58.638Z,99.90
2019-06-15T09:12:05.560Z,99.90
2019-06-15T09:13:12.549Z,99.90
2019-06-15T09:14:17.587Z,99.90
2019-06-15T09:15:37.634Z,99.90
2019-06-15T09:16:42.705Z,99.90
2019-06-15T09:17:49.073Z,99.90
2019-06-15T09:18:56.695Z,99.90
2019-06-15T09:20:02.100Z,99.90
2019-06-15T09:21:08.098Z,99.90
2019-06-15T09:22:19.792Z,99.90
2019-06-15T09:23:24.954Z,99.90
2019-06-15T09:24:31.604Z,99.90
2019-06-15T09:25:37.296Z,99.90
2019-06-15T09:26:46.358Z,99.90
2019-06-15T09:27:50.989Z,99.90
2019-06-15T09:29:10.162Z,99.90
2019-06-15T09:30:06.749Z,99.90
2019-06-15T09:31:19.403Z,99.90
2019-06-15T09:32:25.451Z,99.90
2019-06-15T09:33:33.413Z,99.90
2019-06-15T09:34:39.517Z,99.90
2019-06-15T09:35:46.343Z,99.90
2019-06-15T09:36:52.104Z,99.90
2019-06-15T09:37:59.510Z,99.90
2019-06-15T09:39:06.697Z,99.90
2019-06-15T09:40:15.440Z,99.90
2019-06-15T09:41:20.916Z,99.90
2019-06-15T09:42:26.912Z,99.90
2019-06-15T09:43:32.482Z,99.90
2019-06-15T09:44:38.951Z,99.90
2019-06-15T09:45:44.438Z,99.90
2019-06-15T09:46:50.840Z,99.90
2019-06-15T09:47:56.199Z,99.90
2019-06-15T09:49:02.255Z,99.90
2019-06-15T09:50:07.630Z,99.90
2019-06-15T09:51:13.835Z,99.90
2019-06-15T09:52:21.492Z,99.90
2019-06-15T09:53:26.645Z,99.10
2019-06-15T09:54:31.173Z,98.80
2019-06-15T09:55:36.222Z,99.30
2019-06-15T09:56:40.763Z,99.20
2019-06-15T09:57:45.835Z,98.60
2019-06-15T09:58:50.399Z,99.60
2019-06-15T09:59:57.013Z,99.80
2019-06-15T10:01:01.522Z,99.90
2019-06-15T10:02:07.026Z,99.90
2019-06-15T10:03:12.163Z,99.90
2019-06-15T10:04:20.279Z,99.90
2019-06-15T10:05:24.903Z,99.90
2019-06-15T10:06:31.394Z,99.90
2019-06-15T10:07:35.853Z,99.40
2019-06-15T10:08:41.476Z,99.20
2019-06-15T10:09:46.063Z,98.50
2019-06-15T10:10:51.287Z,98.20
2019-06-15T10:11:55.772Z,98.00
2019-06-15T10:13:01.083Z,98.50
2019-06-15T10:14:05.830Z,98.70
2019-06-15T10:15:14.994Z,99.10
2019-06-15T10:16:19.605Z,99.30
2019-06-15T10:17:24.773Z,99.50
2019-06-15T10:18:29.418Z,99.90
2019-06-15T10:19:34.770Z,99.90
2019-06-15T10:20:39.459Z,99.80
2019-06-15T10:21:44.780Z,99.90
2019-06-15T10:22:49.859Z,99.90
2019-06-15T10:23:55.236Z,99.90
2019-06-15T10:24:59.727Z,99.90
2019-06-15T10:26:05.119Z,99.90
2019-06-15T10:27:10.982Z,99.90
2019-06-15T10:28:16.351Z,99.90
2019-06-15T10:29:20.969Z,99.90
2019-06-15T10:30:26.054Z,99.90
2019-06-15T10:31:30.680Z,99.90
2019-06-15T10:32:35.822Z,99.90
2019-06-15T10:33:40.544Z,99.90
2019-06-15T10:34:45.836Z,99.90
2019-06-15T10:35:50.522Z,99.90
2019-06-15T10:36:55.938Z,99.90
2019-06-15T10:38:00.706Z,99.90
2019-06-15T10:39:07.266Z,99.90
2019-06-15T10:40:15.148Z,99.90
2019-06-15T10:41:22.597Z,99.90
2019-06-15T10:42:27.286Z,99.90
2019-06-15T10:43:32.516Z,99.90
2019-06-15T10:44:37.427Z,99.90
2019-06-15T10:45:42.689Z,99.90
2019-06-15T10:46:47.326Z,99.90
2019-06-15T10:47:52.445Z,99.90
2019-06-15T10:48:57.031Z,99.90
2019-06-15T10:50:02.141Z,99.90
2019-06-15T10:51:06.805Z,99.90
2019-06-15T10:52:12.577Z,99.90
2019-06-15T10:53:17.271Z,99.90
2019-06-15T10:54:22.615Z,99.90
2019-06-15T10:55:27.145Z,99.90
2019-06-15T10:56:32.484Z,99.90
2019-06-15T10:57:37.134Z,99.90
2019-06-15T10:58:43.424Z,99.90
2019-06-15T10:59:56.907Z,99.90
2019-06-15T11:00:54.988Z,99.90
2019-06-15T11:01:59.778Z,99.90
2019-06-15T11:03:06.458Z,99.90
2019-06-15T11:04:14.301Z,99.90
2019-06-15T11:05:21.936Z,99.90
2019-06-15T11:06:26.767Z,99.90
2019-06-15T11:07:32.384Z,99.90
2019-06-15T11:08:37.345Z,99.90
2019-06-15T11:09:42.364Z,99.90
2019-06-15T11:10:54.235Z,99.90
2019-06-15T11:11:59.258Z,99.90
2019-06-15T11:13:03.842Z,99.90
2019-06-15T11:14:11.163Z,99.90
2019-06-15T11:15:16.485Z,99.90
2019-06-15T11:16:40.538Z,99.90
2019-06-15T11:17:44.999Z,99.90
2019-06-15T11:18:50.146Z,99.90
2019-06-15T11:19:54.774Z,99.90
2019-06-15T11:21:00.575Z,99.90
2019-06-15T11:22:05.048Z,99.90
2019-06-15T11:23:10.400Z,99.90
2019-06-15T11:24:15.137Z,99.90
2019-06-15T11:25:20.273Z,99.90
2019-06-15T11:26:24.794Z,99.90
2019-06-15T11:27:29.963Z,99.90
2019-06-15T11:28:34.418Z,99.90
2019-06-15T11:29:39.524Z,99.90
2019-06-15T11:30:44.015Z,99.90
2019-06-15T11:31:50.088Z,99.90
2019-06-15T11:32:54.555Z,99.90
2019-06-15T11:33:59.679Z,99.90
2019-06-15T11:35:04.776Z,99.90
2019-06-15T11:36:10.070Z,99.90
2019-06-15T11:37:14.948Z,99.90
2019-06-15T11:38:21.261Z,99.90
2019-06-15T11:39:25.754Z,99.90
2019-06-15T11:40:30.831Z,99.90
2019-06-15T11:41:36.772Z,99.90
2019-06-15T11:42:41.911Z,99.90
2019-06-15T11:43:46.415Z,99.90
2019-06-15T11:44:53.601Z,99.90
2019-06-15T11:46:10.618Z,99.90
2019-06-15T11:47:16.080Z,99.90
2019-06-15T11:48:20.721Z,99.90
2019-06-15T11:49:25.858Z,99.90
2019-06-15T11:50:30.454Z,99.90
2019-06-15T11:51:35.610Z,99.90
2019-06-15T11:52:40.349Z,99.90
2019-06-15T11:53:45.444Z,99.90
2019-06-15T11:54:49.896Z,99.90
2019-06-15T11:55:54.927Z,99.90
2019-06-15T11:56:59.374Z,99.90
2019-06-15T11:58:04.517Z,99.90
2019-06-15T11:59:08.940Z,99.90
2019-06-15T12:00:30.322Z,99.90
2019-06-15T12:01:20.749Z,99.90
2019-06-15T12:02:25.899Z,99.90
2019-06-15T12:03:31.998Z,99.90
2019-06-15T12:04:37.069Z,99.90
2019-06-15T12:05:41.728Z,99.90
2019-06-15T12:06:50.522Z,99.90
2019-06-15T12:07:55.012Z,99.90
2019-06-15T12:09:00.098Z,99.90
2019-06-15T12:10:04.638Z,99.90
2019-06-15T12:11:09.804Z,99.90
2019-06-15T12:12:14.620Z,99.90
2019-06-15T12:13:19.593Z,99.90
2019-06-15T12:14:24.086Z,99.90
2019-06-15T12:15:29.342Z,99.90
2019-06-15T12:16:33.797Z,99.90
2019-06-15T12:17:38.911Z,99.90
2019-06-15T12:18:43.599Z,99.90
2019-06-15T12:19:49.686Z,99.90
2019-06-15T12:20:54.135Z,99.90
2019-06-15T12:21:59.233Z,99.90
2019-06-15T12:23:03.766Z,99.90
2019-06-15T12:24:09.028Z,99.90
2019-06-15T12:25:14.169Z,99.90
2019-06-15T12:26:19.274Z,99.30
2019-06-15T12:27:25.085Z,99.80
2019-06-15T12:28:30.306Z,98.60
2019-06-15T12:29:34.885Z,99.30
2019-06-15T12:30:47.256Z,98.40
2019-06-15T12:31:47.140Z,99.00
2019-06-15T12:32:52.400Z,99.30
2019-06-15T12:33:56.964Z,99.90
2019-06-15T12:35:02.148Z,99.90
2019-06-15T12:36:18.701Z,99.90
2019-06-15T12:37:13.943Z,99.90
2019-06-15T12:38:18.623Z,99.90
2019-06-15T12:39:24.406Z,99.90
2019-06-15T12:40:29.044Z,99.90
2019-06-15T12:41:53.193Z,99.20
2019-06-15T12:42:57.884Z,99.80
2019-06-15T12:44:03.186Z,99.10
2019-06-15T12:45:07.967Z,99.90
2019-06-15T12:46:13.684Z,99.90
2019-06-15T12:47:18.208Z,99.90
2019-06-15T12:48:23.446Z,99.90
2019-06-15T12:49:27.987Z,99.90
2019-06-15T12:50:33.086Z,99.60
2019-06-15T12:51:40.610Z,98.90
2019-06-15T12:52:44.311Z,98.50
2019-06-15T12:53:48.748Z,97.90
2019-06-15T12:54:53.843Z,97.40
2019-06-15T12:55:58.287Z,97.10
2019-06-15T12:57:03.381Z,97.10
2019-06-15T12:58:07.831Z,96.30
2019-06-15T12:59:13.559Z,96.60
2019-06-15T13:00:18.291Z,96.20
2019-06-15T13:01:23.306Z,96.90
2019-06-15T13:02:27.746Z,96.90
2019-06-15T13:03:33.033Z,97.20
2019-06-15T13:04:37.516Z,97.50
2019-06-15T13:05:42.758Z,97.30
2019-06-15T13:06:47.429Z,97.20
2019-06-15T13:07:52.462Z,96.50
2019-06-15T13:08:56.977Z,96.50
2019-06-15T13:10:02.396Z,97.00
2019-06-15T13:11:07.241Z,97.00
2019-06-15T13:12:12.783Z,96.60
2019-06-15T13:13:17.899Z,96.70
2019-06-15T13:14:23.325Z,96.60
2019-06-15T13:15:27.869Z,96.10
2019-06-15T13:16:39.325Z,95.40
2019-06-15T13:17:41.560Z,95.30
2019-06-15T13:18:46.769Z,96.00
2019-06-15T13:19:51.535Z,96.40
2019-06-15T13:20:56.681Z,96.90
2019-06-15T13:22:01.324Z,97.30
2019-06-15T13:23:06.400Z,97.40
2019-06-15T13:24:11.134Z,97.70
2019-06-15T13:25:16.879Z,97.50
2019-06-15T13:26:21.551Z,96.60
2019-06-15T13:27:26.632Z,96.70
2019-06-15T13:28:32.233Z,96.60
2019-06-15T13:29:37.593Z,96.30
2019-06-15T13:30:42.428Z,96.00
2019-06-15T13:31:47.829Z,95.80
2019-06-15T13:32:59.606Z,95.30
2019-06-15T13:34:04.692Z,95.30
2019-06-15T13:35:09.879Z,94.70
2019-06-15T13:36:15.412Z,94.60
2019-06-15T13:37:21.270Z,93.90
2019-06-15T13:38:26.281Z,94.00
2019-06-15T13:39:31.029Z,93.70
2019-06-15T13:40:36.246Z,93.60
2019-06-15T13:41:40.835Z,93.90
2019-06-15T13:42:46.174Z,93.00
2019-06-15T13:43:51.906Z,93.20
2019-06-15T13:44:57.077Z,94.00
2019-06-15T13:46:01.823Z,93.60
2019-06-15T13:47:07.001Z,93.60
2019-06-15T13:48:11.970Z,93.20
2019-06-15T13:49:18.961Z,93.00
2019-06-15T13:50:23.674Z,92.50
2019-06-15T13:51:28.756Z,92.30
2019-06-15T13:52:33.294Z,92.30
2019-06-15T13:53:38.381Z,92.50
2019-06-15T13:54:42.828Z,92.60
2019-06-15T13:55:47.918Z,92.40
2019-06-15T13:56:52.515Z,92.40
2019-06-15T13:57:59.287Z,91.80
2019-06-15T13:59:04.138Z,91.80
2019-06-15T14:00:09.951Z,91.70
2019-06-15T14:01:15.169Z,92.20
2019-06-15T14:02:20.396Z,91.80